createdAt,value
2022-10-28T00:02:01.107Z,101622.59
2022-10-28T00:04:28.033Z,101611.28
2022-10-28T00:06:54.833Z,101605.94
2022-10-28T00:09:21.720Z,101608.47
2022-10-28T00:11:50.012Z,101599.06
2022-10-28T00:14:20.040Z,101599.75
2022-10-28T00:16:50.708Z,101597.13
2022-10-28T00:19:30.273Z,101602.44
2022-10-28T00:22:08.056Z,101605.94
2022-10-28T00:24:34.891Z,101609.41
2022-10-28T00:27:09.940Z,101603.41
2022-10-28T00:29:36.782Z,101599.88
2022-10-28T00:32:10.501Z,101596.41
2022-10-28T00:34:37.699Z,101595.66
2022-10-28T00:37:08.332Z,101605.16
2022-10-28T00:39:35.196Z,101601.66
2022-10-28T00:42:04.818Z,101605.22
2022-10-28T00:44:37.590Z,101599.13
2022-10-28T00:47:19.959Z,101586.94
2022-10-28T00:50:08.035Z,101591.25
2022-10-28T00:52:37.723Z,101600.06
2022-10-28T00:55:24.446Z,101596.50
2022-10-28T00:58:01.182Z,101593.91
2022-10-28T01:00:32.523Z,101600.88
2022-10-28T01:03:05.529Z,101600.88
2022-10-28T01:05:39.728Z,101612.25
2022-10-28T01:08:16.981Z,101622.69
2022-10-28T01:11:28.399Z,101604.34
2022-10-28T01:14:01.182Z,101606.13
2022-10-28T01:16:56.597Z,101598.19
2022-10-28T01:19:54.495Z,101599.13
2022-10-28T01:25:17.084Z,101594.72
2022-10-28T01:28:14.353Z,101585.09
2022-10-28T01:31:15.788Z,101592.06
2022-10-28T01:34:08.852Z,101588.56
2022-10-28T01:37:00.999Z,101596.44
2022-10-28T01:39:41.862Z,101591.19
2022-10-28T01:42:33.402Z,101599.97
2022-10-28T01:45:14.530Z,101599.94
2022-10-28T01:48:15.094Z,101586.78
2022-10-28T01:51:13.773Z,101593.78
2022-10-28T01:53:43.094Z,101590.31
2022-10-28T01:56:26.402Z,101589.38
2022-10-28T01:59:00.687Z,101587.63
2022-10-28T02:01:36.960Z,101588.53
2022-10-28T02:04:09.013Z,101581.59
2022-10-28T02:06:38.920Z,101579.84
2022-10-28T02:09:38.207Z,101581.59
2022-10-28T02:12:31.426Z,101578.09
2022-10-28T02:15:30.179Z,101567.88
2022-10-28T02:18:12.566Z,101563.41
2022-10-28T02:21:17.901Z,101558.19
2022-10-28T02:24:03.094Z,101550.44
2022-10-28T02:27:01.181Z,101570.50
2022-10-28T02:29:55.678Z,101561.75
2022-10-28T02:32:37.562Z,101565.25
2022-10-28T02:35:28.939Z,101556.63
2022-10-28T02:37:58.800Z,101554.88
2022-10-28T02:40:49.062Z,101563.53
2022-10-28T02:43:37.836Z,101557.44
2022-10-28T02:46:05.457Z,101551.38
2022-10-28T02:48:43.393Z,101559.31
2022-10-28T02:51:35.065Z,101554.06
2022-10-28T02:54:50.967Z,101555.84
2022-10-28T02:57:22.842Z,101563.69
2022-10-28T03:00:17.155Z,101554.06
2022-10-28T03:02:44.193Z,101561.13
2022-10-28T03:05:11.128Z,101553.25
2022-10-28T03:07:38.100Z,101545.41
2022-10-28T03:10:05.332Z,101540.16
2022-10-28T03:12:32.780Z,101544.63
2022-10-28T03:15:01.338Z,101538.56
2022-10-28T03:17:31.005Z,101537.75
2022-10-28T03:19:57.903Z,101533.44
2022-10-28T03:22:24.850Z,101534.28
2022-10-28T03:24:51.932Z,101524.88
2022-10-28T03:27:18.911Z,101523.94
2022-10-28T03:29:47.433Z,101528.16
2022-10-28T03:32:14.377Z,101529.91
2022-10-28T03:34:41.380Z,101522.22
2022-10-28T03:37:08.234Z,101528.25
2022-10-28T03:39:41.274Z,101522.22
2022-10-28T03:42:08.143Z,101517.94
2022-10-28T03:44:38.507Z,101519.66
2022-10-28T03:47:05.359Z,101516.25
2022-10-28T03:49:32.495Z,101504.16
2022-10-28T03:51:59.453Z,101511.03
2022-10-28T03:54:27.874Z,101505.81
2022-10-28T03:56:54.770Z,101507.59
2022-10-28T03:59:31.249Z,101507.59
2022-10-28T04:02:03.582Z,101508.50
2022-10-28T04:04:30.770Z,101505.09
2022-10-28T04:06:57.939Z,101494.81
2022-10-28T04:09:24.768Z,101504.28
2022-10-28T04:11:54.134Z,101511.34
2022-10-28T04:14:30.409Z,101500.91
2022-10-28T04:16:57.355Z,101506.13
2022-10-28T04:19:29.724Z,101508.88
2022-10-28T04:21:56.609Z,101508.97
2022-10-28T04:24:23.377Z,101519.44
2022-10-28T04:26:50.229Z,101523.91
2022-10-28T04:29:17.006Z,101533.50
2022-10-28T04:31:45.468Z,101531.84
2022-10-28T04:34:14.453Z,101527.41
2022-10-28T04:36:41.390Z,101524.03
2022-10-28T04:39:09.782Z,101521.31
2022-10-28T04:41:36.706Z,101522.97
2022-10-28T04:44:03.635Z,101525.63
2022-10-28T04:46:30.534Z,101529.16
2022-10-28T04:48:57.417Z,101531.78
2022-10-28T04:51:24.362Z,101538.78
2022-10-28T04:53:52.219Z,101525.91
2022-10-28T04:56:19.031Z,101531.03
2022-10-28T04:58:47.263Z,101523.19
2022-10-28T05:01:14.468Z,101519.78
2022-10-28T05:03:41.390Z,101515.50
2022-10-28T05:06:08.277Z,101525.91
2022-10-28T05:08:36.989Z,101531.13
2022-10-28T05:11:03.882Z,101540.00
2022-10-28T05:13:30.757Z,101536.47
2022-10-28T05:15:57.676Z,101540.81
2022-10-28T05:18:24.619Z,101540.84
2022-10-28T05:20:54.907Z,101536.53
2022-10-28T05:23:25.789Z,101530.38
2022-10-28T05:25:55.546Z,101534.03
2022-10-28T05:28:22.379Z,101537.44
2022-10-28T05:30:49.312Z,101537.44
2022-10-28T05:33:16.254Z,101538.28
2022-10-28T05:35:43.262Z,101542.69
2022-10-28T05:38:10.381Z,101529.63
2022-10-28T05:40:37.365Z,101523.53
2022-10-28T05:43:04.487Z,101526.09
2022-10-28T05:45:32.022Z,101532.25
2022-10-28T05:47:58.935Z,101528.81
2022-10-28T05:50:25.822Z,101532.31
2022-10-28T05:52:55.147Z,101532.25
2022-10-28T05:55:24.704Z,101526.09
2022-10-28T05:57:53.379Z,101534.13
2022-10-28T06:00:22.833Z,101520.13
2022-10-28T06:02:50.026Z,101534.03
2022-10-28T06:05:17.558Z,101519.25
2022-10-28T06:07:44.560Z,101526.28
2022-10-28T06:10:15.638Z,101538.41
2022-10-28T06:12:41.050Z,101531.44
2022-10-28T06:15:08.366Z,101538.41
2022-10-28T06:17:35.683Z,101535.78
2022-10-28T06:20:03.512Z,101542.78
2022-10-28T06:22:31.014Z,101535.81
2022-10-28T06:24:57.898Z,101540.19
2022-10-28T06:27:24.826Z,101547.94
2022-10-28T06:29:51.835Z,101546.28
2022-10-28T06:32:18.651Z,101555.78
2022-10-28T06:34:45.570Z,101551.56
2022-10-28T06:37:12.867Z,101548.97
2022-10-28T06:39:42.070Z,101556.72
2022-10-28T06:42:10.129Z,101558.50
2022-10-28T06:44:37.128Z,101554.28
2022-10-28T06:47:05.666Z,101560.28
2022-10-28T06:49:32.566Z,101552.47
2022-10-28T06:51:59.448Z,101553.25
2022-10-28T06:54:26.397Z,101541.09
2022-10-28T06:56:53.322Z,101542.91
2022-10-28T06:59:20.278Z,101563.81
2022-10-28T07:01:47.386Z,101562.13
2022-10-28T07:04:14.644Z,101565.53
2022-10-28T07:06:41.618Z,101564.56
2022-10-28T07:09:13.454Z,101567.09
2022-10-28T07:11:46.183Z,101557.50
2022-10-28T07:14:13.149Z,101560.16
2022-10-28T07:16:40.214Z,101560.19
2022-10-28T07:19:07.088Z,101560.19
2022-10-28T07:21:34.701Z,101569.78
2022-10-28T07:24:02.200Z,101565.44
2022-10-28T07:26:29.419Z,101562.91
2022-10-28T07:28:56.342Z,101575.91
2022-10-28T07:31:23.252Z,101576.72
2022-10-28T07:33:53.804Z,101572.50
2022-10-28T07:36:22.212Z,101580.19
2022-10-28T07:38:51.782Z,101577.47
2022-10-28T07:41:21.449Z,101580.94
2022-10-28T07:43:49.060Z,101580.81
2022-10-28T07:46:17.025Z,101579.97
2022-10-28T07:48:43.954Z,101583.34
2022-10-28T07:51:13.619Z,101580.75
2022-10-28T07:53:41.549Z,101589.34
2022-10-28T07:56:13.243Z,101586.72
2022-10-28T07:58:41.627Z,101597.09
2022-10-28T08:01:10.528Z,101595.31
2022-10-28T08:03:38.871Z,101601.38
2022-10-28T08:06:17.952Z,101603.81
2022-10-28T08:08:46.578Z,101594.97
2022-10-28T08:11:16.279Z,101593.22
2022-10-28T08:13:43.220Z,101590.44
2022-10-28T08:16:10.490Z,101594.78
2022-10-28T08:18:38.703Z,101581.63
2022-10-28T08:21:07.227Z,101578.97
2022-10-28T08:23:34.431Z,101565.06
2022-10-28T08:26:01.651Z,101559.66
2022-10-28T08:28:28.802Z,101565.88
2022-10-28T08:31:08.604Z,101576.16
2022-10-28T08:33:38.080Z,101587.41
2022-10-28T08:36:06.101Z,101579.50
2022-10-28T08:38:33.397Z,101577.69
2022-10-28T08:41:03.302Z,101576.78
2022-10-28T08:44:07.675Z,101577.47
2022-10-28T08:46:37.657Z,101572.19
2022-10-28T08:49:12.207Z,101570.34
2022-10-28T08:51:44.576Z,101569.34
2022-10-28T08:54:37.963Z,101573.56
2022-10-28T08:57:11.067Z,101566.44
2022-10-28T08:59:41.795Z,101561.91
2022-10-28T09:02:11.693Z,101554.81
2022-10-28T09:04:41.808Z,101559.00
2022-10-28T09:07:17.342Z,101559.78
2022-10-28T09:09:49.404Z,101561.25
2022-10-28T09:12:23.296Z,101553.44
2022-10-28T09:15:02.331Z,101562.72
2022-10-28T09:18:07.971Z,101559.00
2022-10-28T09:20:54.236Z,101553.63
2022-10-28T09:23:23.687Z,101549.94
2022-10-28T09:26:15.219Z,101548.00
2022-10-28T09:28:50.728Z,101543.47
2022-10-28T09:31:30.762Z,101544.97
2022-10-28T09:34:17.664Z,101537.91
2022-10-28T09:37:24.406Z,101552.38
2022-10-28T09:40:13.695Z,101540.13
2022-10-28T09:42:51.594Z,101547.75
2022-10-28T09:45:24.592Z,101555.50
2022-10-28T09:48:03.096Z,101554.38
2022-10-28T09:50:31.928Z,101550.78
2022-10-28T09:53:06.323Z,101552.31
2022-10-28T09:55:33.259Z,101556.47
2022-10-28T09:58:00.246Z,101546.75
2022-10-28T10:00:27.259Z,101560.53
2022-10-28T10:02:59.967Z,101556.78
2022-10-28T10:05:27.978Z,101561.03
2022-10-28T10:07:56.799Z,101566.06
2022-10-28T10:10:34.938Z,101562.47
2022-10-28T10:13:04.805Z,101569.25
2022-10-28T10:15:36.806Z,101553.41
2022-10-28T10:18:06.172Z,101556.72
2022-10-28T10:20:49.385Z,101549.50
2022-10-28T10:23:37.456Z,101554.63
2022-10-28T10:26:11.292Z,101554.50
2022-10-28T10:28:51.470Z,101549.13
2022-10-28T10:31:19.761Z,101553.19
2022-10-28T10:33:50.999Z,101558.31
2022-10-28T10:36:21.277Z,101555.56
2022-10-28T10:38:54.360Z,101552.66
2022-10-28T10:41:37.944Z,101543.84
2022-10-28T10:44:23.226Z,101548.00
2022-10-28T10:47:06.522Z,101547.00
2022-10-28T10:49:37.540Z,101545.09
2022-10-28T10:52:20.014Z,101533.50
2022-10-28T10:55:04.766Z,101534.13
2022-10-28T10:57:33.477Z,101534.78
2022-10-28T11:00:00.996Z,101533.81
2022-10-28T11:02:35.148Z,101534.53
2022-10-28T11:05:05.885Z,101529.13
2022-10-28T11:07:33.348Z,101531.47
2022-10-28T11:10:01.340Z,101523.47
2022-10-28T11:12:36.254Z,101526.78
2022-10-28T11:15:22.460Z,101517.88
2022-10-28T11:18:16.960Z,101518.56
2022-10-28T11:20:59.176Z,101520.06
2022-10-28T11:24:09.117Z,101515.38
2022-10-28T11:26:42.950Z,101514.22
2022-10-28T11:29:19.038Z,101491.63
2022-10-28T11:32:11.032Z,101507.69
2022-10-28T11:34:55.912Z,101494.50
2022-10-28T11:37:47.605Z,101493.38
2022-10-28T11:40:30.982Z,101486.22
2022-10-28T11:43:25.739Z,101497.41
2022-10-28T11:45:59.599Z,101502.50
2022-10-28T11:48:35.869Z,101493.53
2022-10-28T11:51:20.665Z,101491.53
2022-10-28T11:54:00.821Z,101487.97
2022-10-28T11:56:46.606Z,101477.28
2022-10-28T11:59:39.600Z,101488.31
2022-10-28T12:02:25.262Z,101487.22
2022-10-28T12:05:10.289Z,101479.16
2022-10-28T12:07:58.885Z,101465.81
2022-10-28T12:10:54.166Z,101458.59
2022-10-28T12:13:36.144Z,101456.66
2022-10-28T12:16:15.000Z,101454.66
2022-10-28T12:18:50.856Z,101449.91
2022-10-28T12:21:30.250Z,101453.31
2022-10-28T12:23:59.044Z,101449.63
2022-10-28T12:26:40.929Z,101441.44
2022-10-28T12:29:23.900Z,101438.69
2022-10-28T12:32:05.087Z,101441.94
2022-10-28T12:34:40.817Z,101431.47
2022-10-28T12:37:17.334Z,101437.28
2022-10-28T12:39:59.429Z,101434.25
2022-10-28T12:42:34.361Z,101434.09
2022-10-28T12:45:04.990Z,101431.28
2022-10-28T12:47:50.922Z,101439.97
2022-10-28T12:50:25.685Z,101431.03
2022-10-28T12:52:58.992Z,101446.59
2022-10-28T12:55:33.591Z,101444.66
2022-10-28T12:58:06.634Z,101449.75
2022-10-28T13:00:40.441Z,101447.91
2022-10-28T13:03:12.425Z,101451.28
2022-10-28T13:05:52.052Z,101457.28
2022-10-28T13:08:24.815Z,101457.94
2022-10-28T13:11:19.630Z,101459.56
2022-10-28T13:14:16.025Z,101471.81
2022-10-28T13:17:11.174Z,101469.00
2022-10-28T13:20:13.606Z,101484.69
2022-10-28T13:23:26.764Z,101478.41
2022-10-28T13:25:58.591Z,101475.66
2022-10-28T13:28:32.688Z,101487.00
2022-10-28T13:31:03.448Z,101489.47
2022-10-28T13:33:31.429Z,101492.84
2022-10-28T13:36:17.611Z,101494.56
2022-10-28T13:38:54.906Z,101497.19
2022-10-28T13:41:42.063Z,101489.28
2022-10-28T13:44:26.510Z,101490.81
2022-10-28T13:46:59.563Z,101478.47
2022-10-28T13:49:28.071Z,101483.69
2022-10-28T13:52:23.039Z,101483.69
2022-10-28T13:54:56.126Z,101488.00
2022-10-28T13:57:26.783Z,101496.03
2022-10-28T14:00:21.490Z,101497.63
2022-10-28T14:03:07.014Z,101504.00
2022-10-28T14:05:37.049Z,101499.50
2022-10-28T14:08:20.265Z,101495.25
2022-10-28T14:11:07.822Z,101513.59
2022-10-28T14:13:39.197Z,101507.59
2022-10-28T14:16:29.242Z,101512.84
2022-10-28T14:19:11.271Z,101515.56
2022-10-28T14:21:51.419Z,101515.66
2022-10-28T14:24:42.599Z,101521.78
2022-10-28T14:27:09.984Z,101528.00
2022-10-28T14:30:10.674Z,101533.44
2022-10-28T14:32:48.578Z,101531.63
2022-10-28T14:35:15.460Z,101543.03
2022-10-28T14:38:09.281Z,101551.94
2022-10-28T14:41:04.667Z,101545.91
2022-10-28T14:43:48.667Z,101543.25
2022-10-28T14:46:36.856Z,101541.66
2022-10-28T14:49:14.029Z,101542.56
2022-10-28T14:51:42.478Z,101547.06
2022-10-28T14:54:15.501Z,101549.00
2022-10-28T14:56:43.308Z,101555.97
2022-10-28T14:59:19.361Z,101571.84
2022-10-28T15:02:07.490Z,101582.50
2022-10-28T15:04:34.478Z,101580.88
2022-10-28T15:07:01.405Z,101586.13
2022-10-28T15:09:30.525Z,101589.88
2022-10-28T15:12:01.262Z,101583.81
2022-10-28T15:15:00.497Z,101594.28
2022-10-28T15:17:31.049Z,101594.44
2022-10-28T15:20:00.201Z,101604.13
2022-10-28T15:22:30.817Z,101601.56
2022-10-28T15:25:12.807Z,101599.00
2022-10-28T15:27:41.394Z,101603.41
2022-10-28T15:30:20.942Z,101615.91
2022-10-28T15:32:47.869Z,101611.78
2022-10-28T15:35:27.032Z,101606.69
2022-10-28T15:38:00.698Z,101612.03
2022-10-28T15:40:33.180Z,101616.53
2022-10-28T15:43:02.648Z,101607.00
2022-10-28T15:45:32.143Z,101603.81
2022-10-28T15:48:00.694Z,101610.72
2022-10-28T15:50:35.496Z,101611.72
2022-10-28T15:53:11.373Z,101608.38
2022-10-28T15:56:02.872Z,101612.88
2022-10-28T15:59:00.144Z,101607.75
2022-10-28T16:01:45.227Z,101612.41
2022-10-28T16:04:18.325Z,101615.19
2022-10-28T16:06:46.363Z,101619.78
2022-10-28T16:09:17.038Z,101615.56
2022-10-28T16:11:49.107Z,101630.56
2022-10-28T16:14:38.534Z,101640.31
2022-10-28T16:17:15.232Z,101638.03
2022-10-28T16:19:59.029Z,101638.19
2022-10-28T16:22:28.196Z,101641.88
2022-10-28T16:24:55.233Z,101648.16
2022-10-28T16:27:25.079Z,101650.94
2022-10-28T16:29:52.135Z,101645.91
2022-10-28T16:32:33.917Z,101645.25
2022-10-28T16:35:02.812Z,101650.59
2022-10-28T16:37:32.329Z,101648.16
2022-10-28T16:39:59.395Z,101651.78
2022-10-28T16:42:27.259Z,101652.81
2022-10-28T16:44:54.314Z,101659.13
2022-10-28T16:47:25.622Z,101661.88
2022-10-28T16:49:57.145Z,101649.94
2022-10-28T16:52:30.508Z,101655.25
2022-10-28T16:54:58.323Z,101665.06
2022-10-28T16:57:26.220Z,101672.34
2022-10-28T16:59:53.759Z,101666.56
2022-10-28T17:02:40.974Z,101676.34
2022-10-28T17:05:19.831Z,101681.91
2022-10-28T17:07:46.885Z,101682.25
2022-10-28T17:10:14.393Z,101691.41
2022-10-28T17:12:41.353Z,101696.00
2022-10-28T17:15:09.233Z,101703.22
2022-10-28T17:17:36.207Z,101701.75
2022-10-28T17:20:04.471Z,101709.78
2022-10-28T17:22:31.623Z,101709.19
2022-10-28T17:24:58.707Z,101708.47
2022-10-28T17:27:25.712Z,101705.97
2022-10-28T17:29:52.707Z,101699.19
2022-10-28T17:32:19.737Z,101706.38
2022-10-28T17:34:46.618Z,101720.50
2022-10-28T17:37:13.534Z,101724.22
2022-10-28T17:39:42.313Z,101717.50
2022-10-28T17:42:09.681Z,101716.03
2022-10-28T17:44:36.798Z,101723.25
2022-10-28T17:47:03.903Z,101718.03
2022-10-28T17:49:32.700Z,101713.13
2022-10-28T17:51:59.842Z,101718.53
2022-10-28T17:54:28.104Z,101719.56
2022-10-28T17:56:55.003Z,101719.78
2022-10-28T17:59:21.983Z,101718.22
2022-10-28T18:01:49.085Z,101725.38
2022-10-28T18:04:15.931Z,101734.31
2022-10-28T18:06:42.835Z,101723.31
2022-10-28T18:09:11.928Z,101736.53
2022-10-28T18:11:39.971Z,101742.88
2022-10-28T18:14:06.854Z,101743.94
2022-10-28T18:16:36.621Z,101755.38
2022-10-28T18:19:07.511Z,101745.00
2022-10-28T18:21:35.263Z,101750.44
2022-10-28T18:24:05.092Z,101748.81
2022-10-28T18:26:34.316Z,101749.78
2022-10-28T18:29:04.102Z,101753.41
2022-10-28T18:31:33.293Z,101752.66
2022-10-28T18:34:01.440Z,101749.25
2022-10-28T18:36:30.810Z,101752.84
2022-10-28T18:38:58.115Z,101752.16
2022-10-28T18:41:27.340Z,101757.50
2022-10-28T18:43:55.727Z,101767.97
2022-10-28T18:46:23.158Z,101778.50
2022-10-28T18:48:50.182Z,101776.06
2022-10-28T18:51:17.778Z,101777.81
2022-10-28T18:53:48.793Z,101787.47
2022-10-28T18:56:18.423Z,101783.09
2022-10-28T18:58:45.435Z,101777.94
2022-10-28T19:01:14.642Z,101772.72
2022-10-28T19:03:42.297Z,101777.19
2022-10-28T19:06:14.797Z,101775.63
2022-10-28T19:08:42.350Z,101778.34
2022-10-28T19:11:13.436Z,101795.88
2022-10-28T19:13:44.146Z,101796.03
2022-10-28T19:18:43.149Z,101798.94
2022-10-28T19:21:14.903Z,101802.53
2022-10-28T19:23:42.839Z,101801.84
2022-10-28T19:26:11.437Z,101805.31
2022-10-28T19:28:43.500Z,101811.50
2022-10-28T19:31:14.050Z,101798.50
2022-10-28T19:33:43.175Z,101800.28
2022-10-28T19:36:13.139Z,101802.94
2022-10-28T19:38:40.299Z,101806.47
2022-10-28T19:41:13.174Z,101818.81
2022-10-28T19:43:40.671Z,101815.44
2022-10-28T19:46:15.802Z,101827.59
2022-10-28T19:48:45.246Z,101821.44
2022-10-28T19:51:15.309Z,101833.78
2022-10-28T19:53:50.245Z,101830.31
2022-10-28T19:56:19.531Z,101826.88
2022-10-28T19:58:49.615Z,101831.34
2022-10-28T20:01:17.680Z,101826.09
2022-10-28T20:03:49.057Z,101828.81
2022-10-28T20:06:17.648Z,101826.09
2022-10-28T20:08:49.395Z,101827.09
2022-10-28T20:11:25.812Z,101844.53
2022-10-28T20:13:54.720Z,101848.91
2022-10-28T20:16:22.598Z,101844.66
2022-10-28T20:18:49.569Z,101841.25
2022-10-28T20:21:18.576Z,101839.47
2022-10-28T20:26:16.933Z,101843.69
2022-10-28T20:28:43.857Z,101839.41
2022-10-28T20:31:13.486Z,101855.94
2022-10-28T20:34:04.775Z,101869.03
2022-10-28T20:36:57.881Z,101875.19
2022-10-28T20:39:30.145Z,101864.88
2022-10-28T20:42:02.318Z,101873.50
2022-10-28T20:44:30.094Z,101872.66
2022-10-28T20:46:59.621Z,101873.44
2022-10-28T20:49:30.221Z,101871.81
2022-10-28T20:51:59.503Z,101876.22
2022-10-28T20:54:29.913Z,101888.44
2022-10-28T20:57:00.180Z,101876.25
2022-10-28T20:59:36.637Z,101881.47
2022-10-28T21:02:05.480Z,101887.59
2022-10-28T21:04:32.592Z,101890.25
2022-10-28T21:07:03.121Z,101889.31
2022-10-28T21:09:32.462Z,101892.00
2022-10-28T21:12:00.777Z,101892.00
2022-10-28T21:14:41.187Z,101886.03
2022-10-28T21:17:14.002Z,101889.41
2022-10-28T21:19:41.985Z,101905.09
2022-10-28T21:22:11.951Z,101904.25
2022-10-28T21:24:39.868Z,101908.66
2022-10-28T21:27:15.296Z,101906.91
2022-10-28T21:29:46.027Z,101901.66
2022-10-28T21:32:16.213Z,101909.56
2022-10-28T21:34:44.610Z,101888.06
2022-10-28T21:37:11.523Z,101908.75
2022-10-28T21:39:39.796Z,101903.59
2022-10-28T21:42:08.144Z,101909.69
2022-10-28T21:44:42.871Z,101910.53
2022-10-28T21:47:10.736Z,101905.38
2022-10-28T21:49:41.743Z,101914.06
2022-10-28T21:52:13.805Z,101911.47
2022-10-28T21:54:44.364Z,101915.88
2022-10-28T21:57:11.474Z,101906.44
2022-10-28T21:59:38.403Z,101905.56
2022-10-28T22:02:05.347Z,101901.31
2022-10-28T22:04:35.076Z,101906.53
2022-10-28T22:07:06.239Z,101901.41
2022-10-28T22:09:35.035Z,101905.88
2022-10-28T22:12:07.586Z,101908.53
2022-10-28T22:14:36.116Z,101908.59
2022-10-28T22:17:06.044Z,101907.72
2022-10-28T22:19:32.967Z,101902.66
2022-10-28T22:21:59.934Z,101901.03
2022-10-28T22:24:28.971Z,101905.38
2022-10-28T22:26:59.452Z,101916.78
2022-10-28T22:29:28.329Z,101918.59
2022-10-28T22:31:57.113Z,101905.69
2022-10-28T22:34:27.778Z,101903.97
2022-10-28T22:36:54.764Z,101919.69
2022-10-28T22:39:25.184Z,101920.59
2022-10-28T22:41:55.047Z,101926.75
2022-10-28T22:44:23.888Z,101912.91
2022-10-28T22:46:52.583Z,101903.41
2022-10-28T22:49:22.459Z,101905.16
2022-10-28T22:51:54.512Z,101912.16
2022-10-28T22:54:25.238Z,101913.09
2022-10-28T22:57:06.931Z,101910.53
2022-10-28T22:59:34.799Z,101908.88
2022-10-28T23:02:03.163Z,101918.47
2022-10-28T23:04:31.739Z,101909.84
2022-10-28T23:07:12.626Z,101907.25
2022-10-28T23:09:41.239Z,101916.88
2022-10-28T23:12:18.057Z,101912.59
2022-10-28T23:15:09.975Z,101921.38
2022-10-28T23:17:38.595Z,101926.69
2022-10-28T23:20:10.288Z,101923.22
2022-10-28T23:22:41.581Z,101919.81
2022-10-28T23:25:12.566Z,101918.13
2022-10-28T23:27:40.690Z,101920.81
2022-10-28T23:30:15.026Z,101925.19
2022-10-28T23:32:42.512Z,101926.97
2022-10-28T23:35:11.639Z,101927.13
2022-10-28T23:37:41.958Z,101935.81
2022-10-28T23:40:12.043Z,101933.28
2022-10-28T23:42:41.144Z,101942.03
2022-10-28T23:45:12.345Z,101937.72
2022-10-28T23:47:44.118Z,101927.28
2022-10-28T23:50:16.944Z,101931.66
2022-10-28T23:52:47.570Z,101924.78
2022-10-28T23:55:16.224Z,101918.59
2022-10-28T23:57:46.432Z,101914.34
